Time;durP1;ratioP1;P1;durP2;ratioP2;P2;SDS_P1;SDS_P2;PMS_P1;PMS_P2;Temp;Humidity;BMP_temperature;BMP_pressure;BME280_temperature;BME280_humidity;BME280_pressure;Samples;Min_cycle;Max_cycle;Signal;HPM_P1;HPM_P2
2022/05/08 00:01:24;;;;;;;9.68;5.97;;;;;;;12.34;79.67;102535.41;4975608;28;20033;-84
2022/05/08 00:03:50;;;;;;;10.38;5.80;;;;;;;12.31;78.44;102543.50;4992272;28;20054;-83
2022/05/08 00:06:16;;;;;;;10.23;5.65;;;;;;;12.31;79.28;102540.00;5007747;28;20052;-83
2022/05/08 00:08:41;;;;;;;8.10;5.60;;;;;;;12.32;79.94;102537.28;5012376;28;20021;-83
2022/05/08 00:11:06;;;;;;;10.02;5.70;;;;;;;12.31;79.43;102529.44;5010422;28;20441;-83
2022/05/08 00:13:32;;;;;;;10.02;6.07;;;;;;;12.27;79.14;102539.31;4996659;28;20034;-84
2022/05/08 00:15:58;;;;;;;11.18;6.45;;;;;;;12.21;79.21;102521.19;4975546;28;20110;-88
2022/05/08 00:18:23;;;;;;;8.57;6.55;;;;;;;12.21;79.26;102529.94;4974801;28;20034;-87
2022/05/08 00:20:49;;;;;;;11.52;6.57;;;;;;;12.18;80.42;102526.63;4993102;28;20026;-84
2022/05/08 00:23:15;;;;;;;9.95;6.25;;;;;;;12.16;80.35;102531.13;5008738;28;20026;-83
2022/05/08 00:25:40;;;;;;;13.63;6.78;;;;;;;12.16;80.21;102525.84;4994504;28;20022;-86
2022/05/08 00:28:06;;;;;;;11.45;6.68;;;;;;;12.14;80.22;102535.63;5007921;28;20014;-87
2022/05/08 00:30:31;;;;;;;13.05;6.60;;;;;;;12.10;80.34;102532.31;4979949;28;20065;-84
2022/05/08 00:32:57;;;;;;;17.17;8.27;;;;;;;12.11;80.55;102527.88;5011367;28;20018;-84
2022/05/08 00:35:23;;;;;;;11.85;7.78;;;;;;;12.07;80.72;102526.34;5012457;28;20460;-84
2022/05/08 00:37:48;;;;;;;11.30;6.70;;;;;;;12.04;80.82;102526.50;5011923;28;20049;-85
2022/05/08 00:40:13;;;;;;;13.25;7.55;;;;;;;12.03;80.98;102530.94;4994543;28;20505;-84
2022/05/08 00:42:39;;;;;;;13.55;7.78;;;;;;;12.02;80.40;102525.75;5012925;28;20068;-84
2022/05/08 00:45:05;;;;;;;12.30;7.10;;;;;;;12.01;81.05;102527.53;4995037;28;20076;-84
2022/05/08 00:47:30;;;;;;;15.73;7.80;;;;;;;11.98;80.63;102526.81;4969880;28;20121;-87
2022/05/08 00:49:56;;;;;;;11.40;7.75;;;;;;;11.96;81.49;102531.31;4975300;28;20110;-84
2022/05/08 00:52:21;;;;;;;14.63;8.00;;;;;;;11.93;81.79;102535.81;4993399;28;20160;-85
2022/05/08 00:54:46;;;;;;;10.98;7.93;;;;;;;11.93;81.99;102533.19;4992637;28;20030;-84
2022/05/08 00:57:12;;;;;;;13.43;7.68;;;;;;;11.90;81.66;102541.25;4992250;28;20048;-83
2022/05/08 00:59:38;;;;;;;14.80;8.10;;;;;;;11.88;82.13;102540.50;4992373;28;20031;-83
2022/05/08 01:02:04;;;;;;;13.35;8.20;;;;;;;11.86;81.77;102538.88;4979273;28;20186;-84
2022/05/08 01:04:30;;;;;;;14.20;8.20;;;;;;;11.80;82.24;102540.03;5012272;28;20482;-84
2022/05/08 01:06:56;;;;;;;15.85;8.77;;;;;;;11.75;82.63;102531.50;5011094;28;20076;-84
2022/05/08 01:09:22;;;;;;;16.75;9.50;;;;;;;11.76;81.59;102543.75;5012131;28;20482;-84
2022/05/08 01:11:50;;;;;;;14.52;8.60;;;;;;;11.71;82.12;102540.50;5011377;28;20362;-84
2022/05/08 01:14:17;;;;;;;14.73;9.27;;;;;;;11.71;82.19;102534.38;4993241;28;20116;-84
2022/05/08 01:16:42;;;;;;;13.20;8.48;;;;;;;11.70;82.88;102537.94;4994288;28;20049;-87
2022/05/08 01:19:08;;;;;;;15.98;9.68;;;;;;;11.66;82.88;102539.88;4992892;28;20037;-87
2022/05/08 01:21:43;;;;;;;13.68;8.77;;;;;;;11.66;82.59;102542.53;4997809;28;20104;-88
2022/05/08 01:24:09;;;;;;;16.65;10.05;;;;;;;11.63;83.08;102542.69;5010803;28;20091;-84
2022/05/08 01:26:35;;;;;;;16.63;9.02;;;;;;;11.60;82.92;102543.66;5011533;28;20022;-84
2022/05/08 01:29:01;;;;;;;13.63;9.77;;;;;;;11.59;82.08;102546.38;5010557;28;20033;-83
2022/05/08 01:31:27;;;;;;;13.82;10.07;;;;;;;11.57;82.33;102535.91;5010972;28;20061;-84
2022/05/08 01:33:52;;;;;;;12.60;9.63;;;;;;;11.56;82.48;102546.53;5010631;28;20100;-87
2022/05/08 01:36:18;;;;;;;16.70;10.00;;;;;;;11.54;82.84;102549.25;5008474;28;20018;-87
2022/05/08 01:38:43;;;;;;;15.55;10.45;;;;;;;11.51;82.35;102549.41;4989679;28;20044;-87
2022/05/08 01:41:08;;;;;;;15.45;9.77;;;;;;;11.49;81.58;102550.41;4974035;28;20030;-88
2022/05/08 01:43:37;;;;;;;18.50;10.30;;;;;;;11.45;82.07;102554.13;4973727;28;20045;-87
2022/05/08 01:46:06;;;;;;;18.80;10.45;;;;;;;11.43;81.82;102556.84;4973908;28;20037;-87
2022/05/08 01:48:33;;;;;;;15.35;10.05;;;;;;;11.42;81.53;102556.94;4991811;28;20026;-87
2022/05/08 01:51:00;;;;;;;13.25;9.95;;;;;;;11.40;82.12;102561.44;4974015;28;20475;-87
2022/05/08 01:53:28;;;;;;;15.25;10.23;;;;;;;11.39;82.23;102559.72;4996314;28;20020;-87
2022/05/08 01:55:54;;;;;;;18.25;10.60;;;;;;;11.35;81.87;102573.97;4991137;28;20038;-86
2022/05/08 01:58:21;;;;;;;18.02;10.57;;;;;;;11.33;82.01;102570.56;4974711;28;20037;-84
2022/05/08 02:00:48;;;;;;;17.20;11.52;;;;;;;11.30;82.71;102561.88;4995746;28;20486;-87
2022/05/08 02:03:14;;;;;;;18.23;11.18;;;;;;;11.27;82.72;102563.81;4972955;28;20145;-87
2022/05/08 02:05:43;;;;;;;13.73;10.80;;;;;;;11.26;83.15;102562.13;5000972;28;20093;-87
2022/05/08 02:08:09;;;;;;;15.57;11.05;;;;;;;11.25;83.18;102574.44;5009911;28;20068;-84
2022/05/08 02:10:35;;;;;;;15.70;11.52;;;;;;;11.23;83.13;102571.03;5001047;28;20048;-84
2022/05/08 02:13:00;;;;;;;18.40;11.95;;;;;;;11.22;82.91;102565.84;4974199;28;20542;-87
2022/05/08 02:15:31;;;;;;;17.63;11.23;;;;;;;11.20;83.27;102565.88;4974517;28;20372;-88
2022/05/08 02:18:01;;;;;;;17.02;12.30;;;;;;;11.14;83.34;102568.81;4990670;28;20053;-84
2022/05/08 02:20:27;;;;;;;20.65;11.82;;;;;;;11.11;83.52;102570.75;4973640;28;20022;-84
2022/05/08 02:22:53;;;;;;;20.30;12.02;;;;;;;11.10;84.04;102569.91;4986200;28;20037;-84
2022/05/08 02:25:19;;;;;;;16.33;12.05;;;;;;;11.08;83.50;102571.75;5009861;28;20033;-87
2022/05/08 02:27:49;;;;;;;20.00;12.20;;;;;;;11.01;84.69;102572.13;4993074;28;20074;-87
2022/05/08 02:30:15;;;;;;;20.42;12.75;;;;;;;10.99;84.38;102580.09;4975266;28;20088;-87
2022/05/08 02:32:41;;;;;;;18.48;12.25;;;;;;;10.97;84.25;102576.69;5010065;28;20069;-83
2022/05/08 02:35:07;;;;;;;21.58;12.82;;;;;;;10.91;84.51;102584.91;4992911;28;20113;-87
2022/05/08 02:37:33;;;;;;;17.75;12.70;;;;;;;10.89;84.54;102577.06;5009310;28;20030;-83
2022/05/08 02:39:59;;;;;;;21.83;13.02;;;;;;;10.84;84.11;102580.84;5008863;28;20451;-83
2022/05/08 02:42:25;;;;;;;21.95;13.13;;;;;;;10.83;83.85;102581.78;5010176;28;20109;-84
2022/05/08 02:44:50;;;;;;;20.75;13.05;;;;;;;10.79;84.43;102580.19;4986981;28;20030;-83
2022/05/08 02:47:15;;;;;;;20.73;12.77;;;;;;;10.75;84.18;102579.47;4971425;28;20029;-87
2022/05/08 02:49:41;;;;;;;16.85;13.02;;;;;;;10.73;84.25;102591.88;4990798;28;20356;-86
2022/05/08 02:52:06;;;;;;;19.52;12.90;;;;;;;10.74;84.85;102579.56;4990024;28;20030;-86
2022/05/08 02:54:32;;;;;;;21.90;12.90;;;;;;;10.72;84.93;102587.53;4989367;28;20148;-87
2022/05/08 02:59:41;;;;;;;22.00;13.52;;;;;;;10.68;83.93;102588.59;4990065;28;20064;-86
2022/05/08 03:02:07;;;;;;;18.92;12.80;;;;;;;10.63;84.46;102591.44;5008250;28;20061;-83
2022/05/08 03:04:32;;;;;;;22.63;13.55;;;;;;;10.61;84.01;102587.19;5010495;28;20389;-83
2022/05/08 03:06:58;;;;;;;19.38;13.40;;;;;;;10.58;84.14;102588.16;5009423;28;20110;-83
2022/05/08 03:09:23;;;;;;;18.63;12.65;;;;;;;10.56;83.79;102590.03;4992197;28;20383;-83
2022/05/08 03:11:48;;;;;;;20.73;13.52;;;;;;;10.55;83.95;102584.84;5010285;28;20108;-86
2022/05/08 03:14:14;;;;;;;19.38;12.85;;;;;;;10.47;84.00;102582.56;4992136;28;20064;-87
2022/05/08 03:16:41;;;;;;;21.50;13.23;;;;;;;10.46;84.73;102583.47;5009545;28;20025;-87
2022/05/08 03:19:06;;;;;;;23.52;13.85;;;;;;;10.45;84.53;102581.78;4990482;28;20039;-86
2022/05/08 03:21:33;;;;;;;17.80;13.23;;;;;;;10.41;83.95;102585.47;4990662;28;20056;-87
2022/05/08 03:23:59;;;;;;;20.85;13.10;;;;;;;10.41;84.18;102579.34;4957659;28;20042;-87
2022/05/08 03:26:28;;;;;;;22.70;12.95;;;;;;;10.40;84.40;102583.72;4973620;28;20062;-86
2022/05/08 03:28:53;;;;;;;23.65;13.25;;;;;;;10.39;84.04;102582.03;4990057;28;20022;-86
2022/05/08 03:31:18;;;;;;;21.73;13.50;;;;;;;10.39;84.53;102578.53;4973216;28;20428;-86
2022/05/08 03:33:44;;;;;;;20.58;12.70;;;;;;;10.37;84.24;102583.88;4981716;28;20037;-86
2022/05/08 03:36:10;;;;;;;21.08;12.27;;;;;;;10.36;83.69;102587.44;4988581;28;20157;-86
2022/05/08 03:38:40;;;;;;;19.67;12.32;;;;;;;10.34;83.69;102579.59;4990692;28;20425;-83
2022/05/08 03:41:07;;;;;;;20.27;11.93;;;;;;;10.29;83.13;102592.13;4973039;28;20022;-82
2022/05/08 03:43:34;;;;;;;21.83;11.50;;;;;;;10.29;82.35;102586.00;4990143;28;20394;-83
2022/05/08 03:45:59;;;;;;;22.45;11.50;;;;;;;10.29;82.11;102586.00;4990530;28;20033;-86
2022/05/08 03:48:25;;;;;;;20.10;10.20;;;;;;;10.25;81.38;102589.69;4989728;28;20026;-83
2022/05/08 03:50:50;;;;;;;19.42;9.32;;;;;;;10.25;79.93;102584.44;4994194;28;20482;-83
2022/05/08 03:53:15;;;;;;;21.25;8.35;;;;;;;10.22;78.30;102589.84;4989871;28;20034;-86
2022/05/08 03:55:41;;;;;;;20.70;8.15;;;;;;;10.18;78.14;102593.50;4989278;28;20085;-86
2022/05/08 03:58:06;;;;;;;20.77;8.57;;;;;;;10.15;78.25;102589.22;4989583;28;20113;-87
2022/05/08 04:00:31;;;;;;;22.30;8.35;;;;;;;10.15;78.50;102593.63;4977937;28;20040;-86
2022/05/08 04:02:58;;;;;;;22.17;8.10;;;;;;;10.12;77.88;102596.41;5003475;28;20038;-86
2022/05/08 04:05:23;;;;;;;22.90;7.85;;;;;;;10.08;78.53;102589.56;4985673;28;20384;-83
2022/05/08 04:07:48;;;;;;;20.75;7.65;;;;;;;10.06;77.65;102589.63;4973534;28;20645;-83
2022/05/08 04:10:14;;;;;;;20.23;8.07;;;;;;;10.04;77.52;102600.22;4995506;28;20069;-87
2022/05/08 04:12:42;;;;;;;22.27;8.32;;;;;;;10.04;78.45;102600.22;4976094;28;20022;-86
2022/05/08 04:17:53;;;;;;;27.02;9.35;;;;;;;10.01;78.97;102603.00;4992106;28;20053;-84
2022/05/08 04:20:18;;;;;;;19.50;7.80;;;;;;;9.95;78.81;102603.22;4975241;28;20117;-84
2022/05/08 04:25:27;;;;;;;20.42;7.43;;;;;;;9.90;78.66;102610.47;5011120;28;20125;-88
2022/05/08 04:27:52;;;;;;;19.63;7.15;;;;;;;9.90;77.36;102606.97;4994663;28;20225;-84
2022/05/08 04:30:18;;;;;;;19.40;7.15;;;;;;;9.86;77.74;102618.56;4994671;28;20022;-84
2022/05/08 04:32:43;;;;;;;20.35;6.68;;;;;;;9.83;77.93;102609.03;5011973;28;20128;-86
2022/05/08 04:35:08;;;;;;;21.42;6.53;;;;;;;9.79;77.74;102614.47;5012835;28;20079;-87
2022/05/08 04:37:34;;;;;;;24.85;6.88;;;;;;;9.78;77.53;102615.41;5012679;28;20034;-86
2022/05/08 04:39:59;;;;;;;19.83;6.22;;;;;;;9.75;78.03;102611.13;5011843;28;20044;-86
2022/05/08 04:42:25;;;;;;;25.08;7.13;;;;;;;9.73;77.63;102612.97;4995249;28;20367;-86
2022/05/08 04:44:51;;;;;;;25.05;6.82;;;;;;;9.67;78.08;102611.47;5000245;28;20030;-84
2022/05/08 04:47:16;;;;;;;24.77;6.47;;;;;;;9.64;78.20;102618.63;4975821;28;20260;-84
2022/05/08 04:49:41;;;;;;;31.40;7.18;;;;;;;9.62;78.83;102623.94;4975736;28;20026;-83
2022/05/08 04:52:07;;;;;;;27.13;6.75;;;;;;;9.60;78.36;102628.38;4992569;28;20037;-84
2022/05/08 04:54:32;;;;;;;25.58;6.40;;;;;;;9.60;78.32;102630.13;4976357;28;20117;-87
2022/05/08 04:56:58;;;;;;;25.02;6.18;;;;;;;9.58;78.64;102634.59;4993028;28;20050;-86
2022/05/08 04:59:23;;;;;;;21.20;6.10;;;;;;;9.58;78.82;102631.97;4991238;28;20117;-84
2022/05/08 05:01:49;;;;;;;25.42;6.45;;;;;;;9.58;78.90;102645.13;4993190;28;20135;-87
2022/05/08 05:04:14;;;;;;;27.70;6.85;;;;;;;9.56;78.62;102646.97;4992696;28;20030;-87
2022/05/08 05:06:42;;;;;;;22.15;6.05;;;;;;;9.57;78.58;102649.53;4992728;28;20045;-87
2022/05/08 05:09:07;;;;;;;26.02;6.38;;;;;;;9.56;79.10;102642.56;4995039;28;20152;-86
2022/05/08 05:11:32;;;;;;;25.65;6.47;;;;;;;9.57;79.10;102653.91;5011555;28;20498;-87
2022/05/08 05:13:57;;;;;;;25.70;6.88;;;;;;;9.58;79.49;102659.13;5011083;28;20034;-87
2022/05/08 05:16:23;;;;;;;27.55;7.22;;;;;;;9.55;78.90;102653.13;4993776;28;20091;-86
2022/05/08 05:18:48;;;;;;;23.63;6.95;;;;;;;9.52;78.93;102662.00;5006040;28;20463;-86
2022/05/08 05:21:13;;;;;;;32.70;7.18;;;;;;;9.54;79.29;102659.31;4991266;28;20700;-84
2022/05/08 05:23:38;;;;;;;25.50;6.68;;;;;;;9.56;78.97;102652.22;4974763;28;20033;-87
2022/05/08 05:26:04;;;;;;;25.83;7.03;;;;;;;9.55;78.70;102661.00;4974095;28;20406;-86
2022/05/08 05:28:30;;;;;;;27.13;6.57;;;;;;;9.56;79.25;102663.56;4991480;28;20030;-83
2022/05/08 05:30:56;;;;;;;29.42;7.43;;;;;;;9.62;79.30;102667.75;4994569;28;20026;-83
2022/05/08 05:33:21;;;;;;;21.17;6.15;;;;;;;9.63;79.04;102672.09;5005463;28;20048;-84
2022/05/08 05:35:46;;;;;;;30.92;6.78;;;;;;;9.65;78.85;102672.88;5003634;28;20030;-87
2022/05/08 05:38:11;;;;;;;30.25;6.50;;;;;;;9.65;78.09;102678.16;4974371;28;20025;-87
2022/05/08 05:40:37;;;;;;;28.40;6.40;;;;;;;9.68;79.11;102685.91;4974751;28;20052;-85
2022/05/08 05:43:02;;;;;;;23.83;6.82;;;;;;;9.74;78.30;102683.03;4990331;28;20030;-84
2022/05/08 05:45:27;;;;;;;26.63;6.68;;;;;;;9.75;78.14;102692.63;4974065;28;20030;-86
2022/05/08 05:47:53;;;;;;;32.38;6.88;;;;;;;9.76;77.88;102694.31;4973929;28;20102;-84
2022/05/08 05:50:23;;;;;;;27.10;6.20;;;;;;;9.81;78.15;102695.00;4990939;28;20030;-87
2022/05/08 05:52:49;;;;;;;25.25;6.10;;;;;;;9.84;77.83;102704.53;4991488;28;20118;-87
2022/05/08 05:55:15;;;;;;;22.33;5.82;;;;;;;9.88;76.90;102706.94;4990546;28;20491;-87
2022/05/08 05:57:41;;;;;;;30.45;6.82;;;;;;;9.88;76.28;102712.22;4991717;28;20411;-86
2022/05/08 06:00:12;;;;;;;23.40;5.97;;;;;;;9.85;75.89;102714.13;4974475;28;20030;-86
2022/05/08 06:02:39;;;;;;;24.02;5.65;;;;;;;9.86;76.42;102714.06;4973880;28;20307;-84
2022/05/08 06:05:06;;;;;;;23.58;6.03;;;;;;;9.96;76.98;102706.63;4979094;28;20017;-85
2022/05/08 06:07:36;;;;;;;25.17;6.25;;;;;;;10.08;76.70;102715.81;4993867;28;20490;-85
2022/05/08 06:10:07;;;;;;;19.77;5.60;;;;;;;10.11;75.51;102720.94;5006298;28;20026;-86
2022/05/08 06:12:33;;;;;;;27.63;5.78;;;;;;;10.14;75.24;102718.19;4974172;28;20183;-86
2022/05/08 06:14:59;;;;;;;24.27;5.80;;;;;;;10.18;74.75;102727.66;4992031;28;20124;-86
2022/05/08 06:17:24;;;;;;;24.58;5.65;;;;;;;10.22;74.13;102734.53;4973373;28;20053;-83
2022/05/08 06:19:49;;;;;;;22.80;5.25;;;;;;;10.23;73.69;102728.34;4974091;28;20113;-86
2022/05/08 06:22:15;;;;;;;22.50;5.60;;;;;;;10.20;73.65;102728.44;4999044;28;20402;-83
2022/05/08 06:24:40;;;;;;;27.83;5.88;;;;;;;10.22;72.77;102731.88;5010224;28;20109;-83
2022/05/08 06:27:06;;;;;;;26.40;5.90;;;;;;;10.25;72.93;102739.66;5008201;28;20028;-83
2022/05/08 06:29:32;;;;;;;20.15;5.60;;;;;;;10.23;72.20;102733.59;4991470;28;20030;-83
2022/05/08 06:31:58;;;;;;;21.60;5.25;;;;;;;10.28;73.16;102734.25;4984610;28;20026;-83
2022/05/08 06:34:24;;;;;;;22.17;4.90;;;;;;;10.35;72.20;102733.91;4990396;28;20391;-84
2022/05/08 06:36:50;;;;;;;21.90;5.40;;;;;;;10.39;71.69;102732.00;4990040;28;20022;-84
2022/05/08 06:39:15;;;;;;;21.25;5.63;;;;;;;10.40;71.68;102736.34;4989715;28;20034;-84
2022/05/08 06:41:41;;;;;;;22.75;5.30;;;;;;;10.48;72.45;102733.41;4972758;28;20030;-83
2022/05/08 06:44:07;;;;;;;24.15;5.68;;;;;;;10.50;71.04;102740.31;4994410;28;20037;-83
2022/05/08 06:46:35;;;;;;;20.92;5.40;;;;;;;10.44;70.29;102745.84;4989873;28;20038;-87
2022/05/08 06:49:01;;;;;;;19.23;5.13;;;;;;;10.44;70.85;102743.22;4989997;28;20478;-87
2022/05/08 06:51:27;;;;;;;21.33;5.38;;;;;;;10.47;71.25;102744.88;4987864;28;20044;-86
2022/05/08 06:53:52;;;;;;;22.20;5.60;;;;;;;10.51;70.14;102744.66;4990162;28;20030;-87
2022/05/08 06:56:17;;;;;;;21.02;5.13;;;;;;;10.53;69.81;102740.19;4969571;28;20054;-86
2022/05/08 07:01:38;;;;;;;25.35;4.80;;;;;;;10.53;69.44;102739.34;4974715;28;20096;-86
2022/05/08 07:04:08;;;;;;;24.00;5.20;;;;;;;10.49;69.24;102745.66;4968778;28;20046;-86
2022/05/08 07:06:37;;;;;;;21.73;4.28;;;;;;;10.51;69.69;102749.94;4986483;28;20036;-87
2022/05/08 07:09:04;;;;;;;22.17;4.97;;;;;;;10.55;68.63;102750.66;4990689;28;20014;-87
2022/05/08 07:11:32;;;;;;;21.70;5.13;;;;;;;10.56;70.04;102747.94;4989818;28;20041;-87
2022/05/08 07:13:58;;;;;;;22.90;4.85;;;;;;;10.66;69.62;102748.41;4990136;28;20034;-87
2022/05/08 07:16:24;;;;;;;28.35;5.53;;;;;;;10.73;68.67;102759.50;4990641;28;20043;-87
2022/05/08 07:18:49;;;;;;;23.38;4.82;;;;;;;10.79;68.69;102752.19;4983986;28;20039;-87
2022/05/08 07:21:14;;;;;;;20.80;4.70;;;;;;;10.84;67.77;102759.91;4970770;28;20090;-87
2022/05/08 07:23:40;;;;;;;25.02;5.60;;;;;;;10.86;67.61;102763.34;4990011;28;20164;-86
2022/05/08 07:26:06;;;;;;;20.48;4.82;;;;;;;11.05;67.45;102758.06;4989299;28;20117;-88
2022/05/08 07:28:31;;;;;;;22.65;4.97;;;;;;;11.24;65.97;102762.47;4990385;28;20088;-87
2022/05/08 07:30:57;;;;;;;22.30;5.57;;;;;;;11.63;66.75;102766.78;4990853;28;20030;-88
2022/05/08 07:33:22;;;;;;;25.90;6.70;;;;;;;11.96;65.40;102766.09;4989681;28;20042;-87
2022/05/08 07:38:35;;;;;;;20.33;5.30;;;;;;;12.48;63.81;102753.81;4974686;28;20073;-87
2022/05/08 07:41:01;;;;;;;19.17;5.03;;;;;;;12.73;62.17;102763.94;4972281;28;20055;-88
2022/05/08 07:43:26;;;;;;;19.75;4.97;;;;;;;12.88;61.34;102762.28;4974354;28;20027;-87
2022/05/08 07:45:52;;;;;;;21.58;4.80;;;;;;;12.93;61.08;102761.09;4974543;28;20034;-87
2022/05/08 07:48:18;;;;;;;20.80;5.03;;;;;;;13.01;61.53;102755.41;4973536;28;20101;-88
2022/05/08 07:50:45;;;;;;;22.65;5.05;;;;;;;13.01;60.59;102763.34;4974324;28;20456;-88
2022/05/08 07:53:13;;;;;;;21.23;5.20;;;;;;;13.12;60.15;102766.25;4978077;28;20443;-84
2022/05/08 07:55:39;;;;;;;21.75;4.65;;;;;;;13.23;60.19;102765.72;4973390;28;20047;-84
2022/05/08 07:58:05;;;;;;;20.80;4.75;;;;;;;13.39;59.62;102762.16;4992483;28;20559;-84
2022/05/08 08:00:31;;;;;;;24.88;5.30;;;;;;;13.55;58.96;102767.44;4976048;28;20120;-86
2022/05/08 08:02:56;;;;;;;21.40;5.18;;;;;;;13.77;59.16;102767.94;4992908;28;20489;-88
2022/05/08 08:05:21;;;;;;;21.55;5.40;;;;;;;14.10;59.19;102773.09;5000488;28;20105;-87
2022/05/08 08:07:50;;;;;;;19.98;4.57;;;;;;;14.46;58.31;102773.72;5012944;28;20022;-83
2022/05/08 08:10:16;;;;;;;19.52;4.80;;;;;;;14.69;55.95;102766.06;5003880;28;20065;-87
2022/05/08 08:12:42;;;;;;;25.92;4.88;;;;;;;14.79;55.82;102769.00;4993262;28;20065;-88
2022/05/08 08:15:08;;;;;;;24.45;5.22;;;;;;;14.89;56.04;102766.66;4977357;28;20227;-84
2022/05/08 08:17:33;;;;;;;17.63;4.50;;;;;;;14.96;55.48;102763.53;4975145;28;20125;-84
2022/05/08 08:19:59;;;;;;;25.85;5.35;;;;;;;15.08;54.57;102761.06;4993773;28;20090;-83
2022/05/08 08:22:24;;;;;;;22.77;5.03;;;;;;;15.08;53.62;102767.22;5002251;28;20117;-83
2022/05/08 08:24:50;;;;;;;19.80;4.97;;;;;;;15.21;54.30;102768.19;5012121;28;20018;-83
2022/05/08 08:27:21;;;;;;;20.92;5.10;;;;;;;15.59;55.12;102771.06;5001892;28;20027;-87
2022/05/08 08:29:47;;;;;;;22.30;5.32;;;;;;;15.95;52.33;102769.63;4993053;28;20033;-87
2022/05/08 08:32:13;;;;;;;25.17;5.00;;;;;;;16.06;51.33;102768.94;4988924;28;20030;-84
2022/05/08 08:34:41;;;;;;;24.15;4.63;;;;;;;15.94;51.12;102770.56;4993022;28;20034;-84
2022/05/08 08:37:08;;;;;;;19.77;4.70;;;;;;;16.00;52.04;102762.19;4992437;28;20389;-83
2022/05/08 08:39:33;;;;;;;19.77;4.68;;;;;;;16.32;51.88;102767.16;4993161;28;20406;-83
2022/05/08 08:42:21;;;;;;;15.63;4.97;;;;;;;16.60;53.03;102767.84;4992997;28;20034;-83
2022/05/08 08:47:43;;;;;;;18.60;4.38;;;;;;;16.67;49.24;102773.63;4993269;28;20049;-83
2022/05/08 08:50:09;;;;;;;17.85;5.28;;;;;;;16.60;47.68;102767.84;4992870;28;20045;-83
2022/05/08 08:52:36;;;;;;;18.42;4.63;;;;;;;16.56;48.24;102770.81;4974329;28;20022;-83
2022/05/08 08:55:02;;;;;;;17.25;5.13;;;;;;;16.63;47.73;102761.47;4991149;28;20041;-84
2022/05/08 08:57:27;;;;;;;22.67;5.22;;;;;;;16.65;48.38;102764.88;4990364;28;20049;-87
2022/05/08 08:59:52;;;;;;;18.85;4.78;;;;;;;16.89;49.71;102759.69;4978069;28;20425;-87
2022/05/08 09:02:20;;;;;;;16.67;4.45;;;;;;;17.14;46.89;102766.78;4992678;28;20022;-86
2022/05/08 09:04:46;;;;;;;17.38;4.75;;;;;;;17.26;45.54;102760.59;4992214;28;20030;-86
2022/05/08 09:07:45;;;;;;;17.30;4.50;;;;;;;17.44;48.32;102769.06;4991145;28;20029;-86
2022/05/08 09:10:13;;;;;;;13.68;4.47;;;;;;;17.43;45.90;102762.88;4959128;28;20498;-86
2022/05/08 09:12:43;;;;;;;17.98;4.50;;;;;;;17.48;45.31;102768.72;4976552;28;20041;-87
2022/05/08 09:15:31;;;;;;;15.25;4.10;;;;;;;17.72;46.85;102767.94;4989941;28;20026;-87
2022/05/08 09:17:57;;;;;;;15.02;4.65;;;;;;;17.97;46.04;102767.81;4995040;28;20057;-86
2022/05/08 09:20:43;;;;;;;18.90;4.60;;;;;;;17.97;46.32;102769.63;4991037;28;20039;-87
2022/05/08 09:23:17;;;;;;;15.63;4.78;;;;;;;17.99;45.90;102765.88;5006213;28;20034;-86
2022/05/08 09:25:48;;;;;;;17.30;4.13;;;;;;;18.08;45.04;102765.22;5010941;28;20022;-87
2022/05/08 09:28:16;;;;;;;14.05;4.28;;;;;;;18.12;45.43;102756.00;4992982;28;20026;-84
2022/05/08 09:30:58;;;;;;;14.73;4.38;;;;;;;18.17;44.39;102769.84;4992792;28;20030;-84
2022/05/08 09:33:31;;;;;;;15.63;4.28;;;;;;;17.88;45.48;102763.16;4982927;28;20062;-87
2022/05/08 09:35:59;;;;;;;16.00;4.25;;;;;;;17.87;43.51;102752.63;4974308;28;20398;-83
2022/05/08 09:38:41;;;;;;;14.70;4.47;;;;;;;17.88;44.93;102757.00;4990454;28;20117;-86
2022/05/08 09:41:06;;;;;;;15.48;3.72;;;;;;;17.44;43.18;102753.94;4991095;28;20049;-87
2022/05/08 09:43:34;;;;;;;14.50;3.90;;;;;;;17.43;44.10;102751.38;4992004;28;20022;-87
2022/05/08 09:46:00;;;;;;;15.80;4.28;;;;;;;17.62;44.90;102750.91;4991627;28;20389;-83
2022/05/08 09:48:27;;;;;;;15.13;3.92;;;;;;;17.69;44.49;102757.50;4991462;28;20045;-87
2022/05/08 09:50:58;;;;;;;13.07;3.78;;;;;;;17.84;44.55;102761.69;4991509;28;20595;-87
2022/05/08 09:53:24;;;;;;;15.80;4.00;;;;;;;17.92;44.67;102764.63;4991607;28;20018;-83
2022/05/08 09:55:52;;;;;;;14.35;3.92;;;;;;;18.06;42.57;102751.16;4990371;28;20053;-83
2022/05/08 09:58:18;;;;;;;13.95;3.65;;;;;;;18.17;43.01;102753.00;4974263;28;20026;-83
2022/05/08 10:00:45;;;;;;;13.45;4.03;;;;;;;17.97;43.43;102761.63;4991750;28;20037;-87
2022/05/08 10:03:11;;;;;;;13.77;3.85;;;;;;;17.71;44.05;102758.25;4990601;28;20026;-83
2022/05/08 10:05:37;;;;;;;16.25;5.20;;;;;;;17.74;44.36;102755.34;4974079;28;20406;-83
2022/05/08 10:08:03;;;;;;;15.13;4.65;;;;;;;17.73;43.85;102756.31;4990894;28;20022;-84
2022/05/08 10:13:53;;;;;;;10.50;3.28;;;;;;;17.81;45.19;102741.47;4990894;28;20422;-87
2022/05/08 10:16:54;;;;;;;14.27;4.28;;;;;;;17.90;44.85;102745.25;4989244;28;20026;-87
2022/05/08 10:19:21;;;;;;;12.85;4.00;;;;;;;17.71;43.69;102742.28;4972573;28;20050;-88
2022/05/08 10:21:53;;;;;;;16.70;4.18;;;;;;;17.76;44.64;102735.63;4994358;28;20022;-84
2022/05/08 10:24:31;;;;;;;11.73;3.42;;;;;;;18.15;43.93;102744.28;5002163;28;20026;-84
2022/05/08 10:27:16;;;;;;;14.02;3.97;;;;;;;18.22;43.73;102731.31;4972504;28;20113;-85
2022/05/08 10:29:47;;;;;;;15.75;4.07;;;;;;;18.33;43.27;102728.69;4989229;28;20034;-84
2022/05/08 10:32:33;;;;;;;13.48;3.72;;;;;;;18.32;43.99;102730.50;5007539;28;20386;-84
2022/05/08 10:35:15;;;;;;;13.07;3.92;;;;;;;18.04;42.74;102731.78;4991403;28;20041;-85
2022/05/08 10:37:42;;;;;;;15.15;4.15;;;;;;;18.02;43.46;102733.72;5009297;28;20390;-88
2022/05/08 10:40:23;;;;;;;11.82;4.03;;;;;;;18.09;43.77;102724.28;5004511;28;20164;-87
2022/05/08 10:42:54;;;;;;;14.10;3.92;;;;;;;18.29;44.80;102719.22;5012019;28;20069;-85
2022/05/08 10:45:32;;;;;;;13.77;3.90;;;;;;;18.50;44.02;102720.25;4992594;28;20022;-87
2022/05/08 10:48:14;;;;;;;13.90;3.42;;;;;;;18.35;42.48;102713.41;5010460;28;20383;-86
2022/05/08 10:50:42;;;;;;;14.43;3.88;;;;;;;18.34;43.59;102714.38;5010436;28;20029;-83
2022/05/08 10:53:21;;;;;;;10.15;3.60;;;;;;;18.29;42.10;102716.56;5010331;28;20024;-86
2022/05/08 10:55:46;;;;;;;14.15;3.65;;;;;;;18.11;41.31;102714.34;5010240;28;20485;-86
2022/05/08 10:58:11;;;;;;;11.60;3.58;;;;;;;18.34;42.41;102706.38;5000368;28;20022;-86
2022/05/08 11:00:37;;;;;;;12.80;3.60;;;;;;;18.24;41.60;102710.75;4993009;28;20034;-87
2022/05/08 11:03:03;;;;;;;12.57;3.63;;;;;;;18.12;42.14;102708.06;5010599;28;20030;-87
2022/05/08 11:05:29;;;;;;;11.02;3.22;;;;;;;18.29;41.54;102705.91;4992506;28;20402;-87
2022/05/08 11:08:00;;;;;;;10.13;3.60;;;;;;;18.48;40.76;102703.53;4992850;28;20033;-87
2022/05/08 11:10:26;;;;;;;11.88;3.90;;;;;;;18.67;40.94;102703.81;5014370;28;20108;-86
2022/05/08 11:13:01;;;;;;;11.80;3.13;;;;;;;18.72;41.42;102714.94;5013935;28;20488;-86
2022/05/08 11:15:30;;;;;;;12.57;3.30;;;;;;;18.66;40.85;102718.09;5001962;28;20030;-86
2022/05/08 11:18:07;;;;;;;12.30;3.28;;;;;;;18.89;39.85;102704.78;4981485;28;20194;-87
2022/05/08 11:20:33;;;;;;;8.10;2.95;;;;;;;18.72;41.42;102706.09;4976445;28;20089;-87
2022/05/08 11:22:58;;;;;;;11.93;3.63;;;;;;;18.64;41.14;102697.88;4989778;28;20023;-87
2022/05/08 11:25:24;;;;;;;11.57;3.65;;;;;;;18.73;41.38;102700.66;5013715;28;20397;-87
2022/05/08 11:27:53;;;;;;;13.13;3.42;;;;;;;18.79;40.83;102692.16;4979164;28;20037;-84
2022/05/08 11:30:33;;;;;;;15.02;3.22;;;;;;;19.00;41.73;102696.75;4995307;28;20056;-84
2022/05/08 11:36:04;;;;;;;11.60;3.08;;;;;;;19.45;41.73;102688.66;4994392;28;20037;-83
2022/05/08 11:38:32;;;;;;;9.45;3.38;;;;;;;19.62;39.64;102690.84;4992852;28;20549;-82
2022/05/08 11:41:01;;;;;;;9.23;3.20;;;;;;;19.53;40.40;102687.09;4975510;28;20058;-83